createdAt,value
2019-03-26T00:00:37.745Z,102463.13
2019-03-26T00:03:11.824Z,102474.65
2019-03-26T00:05:44.304Z,102470.64
2019-03-26T00:08:17.788Z,102475.97
2019-03-26T00:10:50.611Z,102472.41
2019-03-26T00:13:26.938Z,102472.39
2019-03-26T00:15:59.243Z,102477.31
2019-03-26T00:18:31.786Z,102474.59
2019-03-26T00:21:02.628Z,102473.31
2019-03-26T00:23:35.556Z,102469.80
2019-03-26T00:26:11.334Z,102469.32
2019-03-26T00:28:48.002Z,102479.48
2019-03-26T00:31:20.184Z,102474.65
2019-03-26T00:33:52.008Z,102475.09
2019-03-26T00:36:24.333Z,102480.83
2019-03-26T00:38:56.631Z,102485.27
2019-03-26T00:41:28.682Z,102487.93
2019-03-26T00:44:01.900Z,102482.62
2019-03-26T00:46:33.796Z,102481.28
2019-03-26T00:49:07.103Z,102476.42
2019-03-26T00:51:39.068Z,102473.33
2019-03-26T00:54:14.050Z,102477.73
2019-03-26T00:56:44.804Z,102475.55
2019-03-26T00:59:16.941Z,102480.83
2019-03-26T01:01:48.492Z,102482.16
2019-03-26T01:04:32.053Z,102478.64
2019-03-26T01:06:54.821Z,102484.81
2019-03-26T01:09:26.061Z,102483.96
2019-03-26T01:12:00.283Z,102487.02
2019-03-26T01:14:36.652Z,102490.55
2019-03-26T01:17:08.987Z,102489.67
2019-03-26T01:19:42.844Z,102486.12
2019-03-26T01:22:14.192Z,102488.80
2019-03-26T01:24:46.548Z,102493.22
2019-03-26T01:27:17.652Z,102493.66
2019-03-26T01:29:49.462Z,102489.27
2019-03-26T01:32:21.763Z,102497.19
2019-03-26T01:35:01.722Z,102499.44
2019-03-26T01:37:34.119Z,102497.22
2019-03-26T01:40:06.352Z,102499.83
2019-03-26T01:42:40.578Z,102497.64
2019-03-26T01:45:18.677Z,102493.23
2019-03-26T01:47:57.254Z,102495.45
2019-03-26T01:50:29.600Z,102501.63
2019-03-26T01:53:04.095Z,102499.39
2019-03-26T01:55:37.316Z,102497.64
2019-03-26T01:58:08.407Z,102497.66
2019-03-26T02:00:41.529Z,102502.52
2019-03-26T02:03:14.594Z,102510.03
2019-03-26T02:05:46.178Z,102512.70
2019-03-26T02:08:19.742Z,102512.24
2019-03-26T02:11:00.024Z,102515.34
2019-03-26T02:13:42.725Z,102521.11
2019-03-26T02:16:18.425Z,102512.63
2019-03-26T02:18:53.208Z,102517.53
2019-03-26T02:21:28.604Z,102518.41
2019-03-26T02:24:00.949Z,102521.87
2019-03-26T02:26:38.861Z,102521.03
2019-03-26T02:29:10.668Z,102517.08
2019-03-26T02:31:45.246Z,102521.91
2019-03-26T02:34:16.668Z,102517.52
2019-03-26T02:36:49.938Z,102517.98
2019-03-26T02:39:22.552Z,102521.52
2019-03-26T02:41:53.753Z,102523.70
2019-03-26T02:44:26.142Z,102525.94
2019-03-26T02:47:02.232Z,102525.50
2019-03-26T02:49:33.964Z,102527.73
2019-03-26T02:52:04.829Z,102523.30
2019-03-26T02:54:36.767Z,102529.06
2019-03-26T02:57:09.550Z,102526.41
2019-03-26T02:59:41.575Z,102525.52
2019-03-26T03:02:13.624Z,102530.36
2019-03-26T03:04:44.708Z,102522.41
2019-03-26T03:07:15.931Z,102521.97
2019-03-26T03:09:46.933Z,102522.40
2019-03-26T03:12:18.571Z,102524.17
2019-03-26T03:14:50.804Z,102519.31
2019-03-26T03:17:22.897Z,102525.05
2019-03-26T03:19:55.477Z,102531.28
2019-03-26T03:22:27.000Z,102533.48
2019-03-26T03:24:59.567Z,102532.58
2019-03-26T03:27:33.073Z,102535.23
2019-03-26T03:30:05.151Z,102536.98
2019-03-26T03:32:40.097Z,102540.52
2019-03-26T03:35:13.681Z,102540.08
2019-03-26T03:37:51.507Z,102535.66
2019-03-26T03:40:22.702Z,102537.48
2019-03-26T03:42:53.595Z,102538.36
2019-03-26T03:45:33.979Z,102545.42
2019-03-26T03:48:06.323Z,102552.48
2019-03-26T03:50:40.179Z,102547.58
2019-03-26T03:53:17.327Z,102550.23
2019-03-26T03:55:54.629Z,102557.30
2019-03-26T03:58:33.476Z,102552.91
2019-03-26T04:01:04.949Z,102550.67
2019-03-26T04:03:37.556Z,102553.76
2019-03-26T04:06:10.243Z,102551.56
2019-03-26T04:08:41.232Z,102553.79
2019-03-26T04:11:13.593Z,102560.89
2019-03-26T04:13:47.001Z,102560.43
2019-03-26T04:16:18.863Z,102571.53
2019-03-26T04:18:52.893Z,102565.78
2019-03-26T04:21:25.012Z,102568.31
2019-03-26T04:23:55.822Z,102561.78
2019-03-26T04:26:27.345Z,102554.30
2019-03-26T04:28:59.080Z,102560.45
2019-03-26T04:31:31.501Z,102567.98
2019-03-26T04:34:04.480Z,102564.90
2019-03-26T04:36:35.933Z,102562.24
2019-03-26T04:39:09.478Z,102557.39
2019-03-26T04:41:41.074Z,102556.52
2019-03-26T04:44:13.281Z,102548.53
2019-03-26T04:46:44.480Z,102551.62
2019-03-26T04:49:17.487Z,102552.95
2019-03-26T04:51:49.393Z,102566.22
2019-03-26T04:54:21.517Z,102556.45
2019-03-26T04:56:53.226Z,102553.36
2019-03-26T04:59:24.012Z,102559.58
2019-03-26T05:01:55.559Z,102563.58
2019-03-26T05:04:30.344Z,102564.91
2019-03-26T05:07:01.906Z,102566.21
2019-03-26T05:09:33.196Z,102567.58
2019-03-26T05:12:03.993Z,102571.53
2019-03-26T05:14:36.617Z,102569.32
2019-03-26T05:17:08.771Z,102571.51
2019-03-26T05:19:45.721Z,102570.19
2019-03-26T05:22:23.980Z,102562.68
2019-03-26T05:24:50.463Z,102562.25
2019-03-26T05:27:21.236Z,102559.16
2019-03-26T05:29:52.127Z,102552.50
2019-03-26T05:32:23.235Z,102558.70
2019-03-26T05:34:54.983Z,102555.60
2019-03-26T05:37:26.169Z,102562.69
2019-03-26T05:39:57.280Z,102560.89
2019-03-26T05:42:42.859Z,102554.72
2019-03-26T05:45:15.941Z,102551.20
2019-03-26T05:47:47.209Z,102557.38
2019-03-26T05:50:20.731Z,102560.45
2019-03-26T05:52:53.329Z,102558.23
2019-03-26T05:55:25.526Z,102559.59
2019-03-26T05:57:57.220Z,102561.81
2019-03-26T06:00:28.432Z,102568.86
2019-03-26T06:03:02.590Z,102564.86
2019-03-26T06:05:38.216Z,102562.66
2019-03-26T06:08:10.841Z,102573.70
2019-03-26T06:10:41.980Z,102583.88
2019-03-26T06:13:13.409Z,102580.83
2019-03-26T06:15:45.266Z,102576.39
2019-03-26T06:18:18.544Z,102571.55
2019-03-26T06:20:50.329Z,102580.39
2019-03-26T06:23:21.921Z,102587.03
2019-03-26T06:25:54.135Z,102592.34
2019-03-26T06:28:25.371Z,102593.69
2019-03-26T06:30:58.677Z,102586.58
2019-03-26T06:33:30.066Z,102597.20
2019-03-26T06:36:16.230Z,102591.91
2019-03-26T06:38:53.560Z,102587.48
2019-03-26T06:41:26.591Z,102590.13
2019-03-26T06:44:04.376Z,102594.11
2019-03-26T06:46:35.420Z,102597.67
2019-03-26T06:49:06.783Z,102593.66
2019-03-26T06:51:41.260Z,102607.38
2019-03-26T06:54:18.473Z,102609.59
2019-03-26T06:56:50.857Z,102616.23
2019-03-26T06:59:24.300Z,102616.23
2019-03-26T07:01:55.052Z,102615.33
2019-03-26T07:04:40.531Z,102611.33
2019-03-26T07:07:15.139Z,102628.20
2019-03-26T07:09:47.198Z,102621.94
2019-03-26T07:12:20.989Z,102615.75
2019-03-26T07:14:54.156Z,102620.09
2019-03-26T07:17:27.432Z,102620.61
2019-03-26T07:19:59.826Z,102629.97
2019-03-26T07:22:32.203Z,102639.13
2019-03-26T07:25:04.240Z,102638.33
2019-03-26T07:27:35.741Z,102644.05
2019-03-26T07:30:08.475Z,102657.28
2019-03-26T07:32:39.322Z,102645.77
2019-03-26T07:35:11.348Z,102643.09
2019-03-26T07:37:45.829Z,102647.48
2019-03-26T07:40:17.743Z,102659.66
2019-03-26T07:42:49.431Z,102662.83
2019-03-26T07:45:20.658Z,102658.45
2019-03-26T07:47:51.411Z,102659.50
2019-03-26T07:50:23.752Z,102663.30
2019-03-26T07:53:02.510Z,102658.61
2019-03-26T07:55:34.397Z,102669.53
2019-03-26T07:58:07.221Z,102667.06
2019-03-26T08:00:41.284Z,102658.11
2019-03-26T08:03:14.610Z,102658.16
2019-03-26T08:05:48.750Z,102663.05
2019-03-26T08:08:23.004Z,102659.55
2019-03-26T08:10:54.662Z,102663.16
2019-03-26T08:13:27.832Z,102662.70
2019-03-26T08:16:04.708Z,102661.81
2019-03-26T08:18:37.309Z,102658.29
2019-03-26T08:21:13.607Z,102666.22
2019-03-26T08:23:45.642Z,102661.35
2019-03-26T08:26:17.523Z,102660.93
2019-03-26T08:28:48.628Z,102667.59
2019-03-26T08:31:20.675Z,102658.72
2019-03-26T08:33:51.943Z,102661.75
2019-03-26T08:36:24.531Z,102655.09
2019-03-26T08:38:55.951Z,102662.60
2019-03-26T08:41:28.651Z,102661.71
2019-03-26T08:44:00.988Z,102658.21
2019-03-26T08:46:32.998Z,102660.00
2019-03-26T08:49:04.867Z,102650.23
2019-03-26T08:51:36.413Z,102649.43
2019-03-26T08:54:15.946Z,102653.80
2019-03-26T08:56:53.239Z,102658.18
2019-03-26T08:59:29.223Z,102660.87
2019-03-26T09:02:03.587Z,102653.39
2019-03-26T09:04:38.952Z,102654.23
2019-03-26T09:07:18.858Z,102647.06
2019-03-26T09:09:54.485Z,102655.55
2019-03-26T09:12:26.002Z,102650.30
2019-03-26T09:14:57.719Z,102647.58
2019-03-26T09:17:29.319Z,102653.75
2019-03-26T09:20:00.353Z,102651.40
2019-03-26T09:22:34.492Z,102652.73
2019-03-26T09:25:07.375Z,102650.34
2019-03-26T09:27:39.320Z,102646.52
2019-03-26T09:30:12.280Z,102657.53
2019-03-26T09:32:45.603Z,102659.85
2019-03-26T09:35:17.924Z,102650.82
2019-03-26T09:37:49.524Z,102650.93
2019-03-26T09:40:21.198Z,102657.83
2019-03-26T09:42:56.380Z,102655.80
2019-03-26T09:45:29.539Z,102662.38
2019-03-26T09:48:01.154Z,102670.33
2019-03-26T09:50:33.486Z,102669.45
2019-03-26T09:53:04.915Z,102670.55
2019-03-26T09:55:39.879Z,102665.44
2019-03-26T09:58:11.758Z,102667.43
2019-03-26T10:00:42.992Z,102665.94
2019-03-26T10:03:14.095Z,102674.89
2019-03-26T10:05:44.887Z,102666.53
2019-03-26T10:08:17.859Z,102663.28
2019-03-26T10:10:49.796Z,102655.97
2019-03-26T10:13:20.865Z,102666.53
2019-03-26T10:15:54.633Z,102665.47
2019-03-26T10:18:26.640Z,102656.23
2019-03-26T10:20:59.469Z,102657.95
2019-03-26T10:23:34.196Z,102657.89
2019-03-26T10:26:10.257Z,102654.52
2019-03-26T10:28:44.286Z,102663.53
2019-03-26T10:31:16.689Z,102648.83
2019-03-26T10:33:51.966Z,102655.94
2019-03-26T10:36:23.176Z,102657.21
2019-03-26T10:39:05.618Z,102652.12
2019-03-26T10:41:34.929Z,102656.11
2019-03-26T10:44:07.096Z,102654.11
2019-03-26T10:46:38.603Z,102665.02
2019-03-26T10:49:09.812Z,102664.26
2019-03-26T10:51:42.222Z,102666.44
2019-03-26T10:54:19.564Z,102666.54
2019-03-26T10:56:54.494Z,102657.47
2019-03-26T10:59:39.526Z,102654.69
2019-03-26T11:02:58.739Z,102660.91
2019-03-26T11:06:05.164Z,102652.15
2019-03-26T11:09:23.092Z,102651.73
2019-03-26T11:18:36.067Z,102642.55
2019-03-26T11:21:19.448Z,102644.72
2019-03-26T11:24:02.335Z,102639.40
2019-03-26T11:26:40.775Z,102643.53
2019-03-26T11:29:13.561Z,102641.77
2019-03-26T11:31:45.167Z,102642.00
2019-03-26T11:34:17.076Z,102643.59
2019-03-26T11:36:49.041Z,102645.81
2019-03-26T11:39:32.264Z,102642.44
2019-03-26T11:41:55.133Z,102638.79
2019-03-26T11:44:27.551Z,102640.73
2019-03-26T11:46:59.515Z,102641.18
2019-03-26T11:49:31.587Z,102638.95
2019-03-26T11:52:02.765Z,102624.86
2019-03-26T11:54:35.296Z,102625.90
2019-03-26T11:57:06.389Z,102622.85
2019-03-26T11:59:37.848Z,102629.41
2019-03-26T12:02:12.384Z,102622.03
2019-03-26T12:04:43.597Z,102626.61
2019-03-26T12:07:17.258Z,102625.00
2019-03-26T12:09:55.273Z,102629.58
2019-03-26T12:13:12.980Z,102630.65
2019-03-26T12:16:10.133Z,102619.66
2019-03-26T12:18:56.800Z,102625.17
2019-03-26T12:21:28.902Z,102619.78
2019-03-26T12:24:02.931Z,102615.92
2019-03-26T12:26:34.527Z,102615.03
2019-03-26T12:29:07.406Z,102616.25
2019-03-26T12:31:41.103Z,102606.52
2019-03-26T12:34:18.737Z,102602.28
2019-03-26T12:36:57.023Z,102602.80
2019-03-26T12:39:44.379Z,102578.28
2019-03-26T12:42:34.238Z,102584.88
2019-03-26T12:45:14.854Z,102585.68
2019-03-26T12:48:11.002Z,102581.35
2019-03-26T12:50:52.838Z,102574.09
2019-03-26T12:53:24.465Z,102586.80
2019-03-26T12:56:00.815Z,102583.00
2019-03-26T12:58:36.536Z,102573.08
2019-03-26T13:01:21.708Z,102577.70
2019-03-26T13:03:52.787Z,102565.11
2019-03-26T13:06:25.694Z,102567.98
2019-03-26T13:08:58.406Z,102566.30
2019-03-26T13:11:29.313Z,102575.51
2019-03-26T13:14:08.301Z,102563.88
2019-03-26T13:16:41.620Z,102569.95
2019-03-26T13:19:13.265Z,102563.80
2019-03-26T13:21:44.398Z,102564.03
2019-03-26T13:24:18.508Z,102554.58
2019-03-26T13:26:51.525Z,102561.30
2019-03-26T13:29:24.621Z,102546.80
2019-03-26T13:31:56.162Z,102559.73
2019-03-26T13:34:27.176Z,102563.45
2019-03-26T13:36:58.353Z,102561.63
2019-03-26T13:39:33.553Z,102559.58
2019-03-26T13:42:12.340Z,102560.58
2019-03-26T13:44:47.328Z,102568.36
2019-03-26T13:47:20.819Z,102569.35
2019-03-26T13:49:57.128Z,102567.80
2019-03-26T13:52:28.799Z,102572.41
2019-03-26T13:55:02.253Z,102563.34
2019-03-26T13:57:35.439Z,102569.00
2019-03-26T14:00:10.938Z,102574.94
2019-03-26T14:02:42.170Z,102570.17
2019-03-26T14:05:28.461Z,102568.22
2019-03-26T14:07:59.349Z,102568.30
2019-03-26T14:10:40.840Z,102565.51
2019-03-26T14:13:06.256Z,102564.08
2019-03-26T14:15:37.479Z,102567.73
2019-03-26T14:18:11.055Z,102571.35
2019-03-26T14:20:43.672Z,102570.06
2019-03-26T14:23:18.466Z,102566.73
2019-03-26T14:26:00.234Z,102564.28
2019-03-26T14:28:42.278Z,102571.44
2019-03-26T14:31:15.763Z,102556.83
2019-03-26T14:34:07.982Z,102562.61
2019-03-26T14:36:39.037Z,102562.50
2019-03-26T14:39:11.949Z,102558.78
2019-03-26T14:41:44.346Z,102553.91
2019-03-26T14:44:16.078Z,102561.77
2019-03-26T14:46:51.377Z,102564.28
2019-03-26T14:49:23.418Z,102567.17
2019-03-26T14:51:55.486Z,102565.31
2019-03-26T14:54:29.090Z,102570.37
2019-03-26T14:57:01.026Z,102561.05
2019-03-26T14:59:32.005Z,102561.23
2019-03-26T15:02:04.355Z,102567.04
2019-03-26T15:04:35.742Z,102566.05
2019-03-26T15:07:07.379Z,102565.60
2019-03-26T15:09:45.986Z,102563.86
2019-03-26T15:12:17.978Z,102560.89
2019-03-26T15:14:48.768Z,102553.00
2019-03-26T15:17:20.247Z,102562.94
2019-03-26T15:19:58.660Z,102559.54
2019-03-26T15:22:33.628Z,102558.21
2019-03-26T15:25:08.166Z,102562.50
2019-03-26T15:27:43.654Z,102550.02
2019-03-26T15:30:25.360Z,102547.84
2019-03-26T15:32:58.429Z,102553.47
2019-03-26T15:35:32.366Z,102549.97
2019-03-26T15:38:03.611Z,102548.72
2019-03-26T15:40:35.386Z,102550.53
2019-03-26T15:43:08.687Z,102538.27
2019-03-26T15:45:41.472Z,102544.14
2019-03-26T15:48:13.198Z,102534.96
2019-03-26T15:50:50.578Z,102532.39
2019-03-26T15:53:22.078Z,102544.25
2019-03-26T15:55:53.175Z,102538.59
2019-03-26T15:58:25.931Z,102534.80
2019-03-26T16:00:59.564Z,102536.59
2019-03-26T16:03:37.516Z,102538.30
2019-03-26T16:06:11.617Z,102532.95
2019-03-26T16:08:42.913Z,102530.84
2019-03-26T16:11:14.152Z,102536.94
2019-03-26T16:13:48.631Z,102529.95
2019-03-26T16:16:20.714Z,102535.41
2019-03-26T16:18:56.953Z,102537.72
2019-03-26T16:21:29.446Z,102535.67
2019-03-26T16:24:00.613Z,102533.56
2019-03-26T16:26:31.697Z,102534.26
2019-03-26T16:29:06.235Z,102533.31
2019-03-26T16:31:38.448Z,102539.97
2019-03-26T16:34:09.860Z,102538.14
2019-03-26T16:36:42.955Z,102535.69
2019-03-26T16:39:14.690Z,102540.53
2019-03-26T16:41:49.230Z,102542.36
2019-03-26T16:44:22.295Z,102538.85
2019-03-26T16:46:53.020Z,102550.70
2019-03-26T16:49:24.489Z,102546.41
2019-03-26T16:51:56.112Z,102555.14
2019-03-26T16:54:26.989Z,102548.73
2019-03-26T16:57:00.440Z,102551.86
2019-03-26T16:59:32.628Z,102555.59
2019-03-26T17:02:03.811Z,102554.52
2019-03-26T17:04:37.248Z,102562.66
2019-03-26T17:07:11.036Z,102559.09
2019-03-26T17:09:43.016Z,102555.16
2019-03-26T17:12:13.848Z,102554.27
2019-03-26T17:14:45.909Z,102557.76
2019-03-26T17:17:17.697Z,102558.30
2019-03-26T17:19:49.734Z,102557.28
2019-03-26T17:22:24.686Z,102565.31
2019-03-26T17:25:07.342Z,102560.39
2019-03-26T17:27:49.750Z,102559.23
2019-03-26T17:30:28.265Z,102559.19
2019-03-26T17:33:05.185Z,102564.12
2019-03-26T17:35:40.880Z,102558.98
2019-03-26T17:38:13.447Z,102557.41
2019-03-26T17:40:55.088Z,102557.45
2019-03-26T17:43:29.076Z,102563.19
2019-03-26T17:46:00.407Z,102561.37
2019-03-26T17:48:31.934Z,102560.43
2019-03-26T17:51:03.069Z,102558.85
2019-03-26T17:53:34.659Z,102559.84
2019-03-26T17:56:10.533Z,102551.20
2019-03-26T17:58:41.655Z,102558.13
2019-03-26T18:01:15.035Z,102559.73
2019-03-26T18:03:47.206Z,102562.35
2019-03-26T18:06:18.878Z,102561.90
2019-03-26T18:08:50.917Z,102558.52
2019-03-26T18:11:24.162Z,102564.13
2019-03-26T18:13:57.789Z,102565.29
2019-03-26T18:16:32.333Z,102576.78
2019-03-26T18:19:03.624Z,102577.58
2019-03-26T18:21:35.248Z,102575.73
2019-03-26T18:24:06.568Z,102582.73
2019-03-26T18:26:38.348Z,102585.39
2019-03-26T18:29:09.097Z,102584.00
2019-03-26T18:31:57.091Z,102589.34
2019-03-26T18:34:29.307Z,102588.30
2019-03-26T18:37:00.407Z,102594.17
2019-03-26T18:39:40.157Z,102596.30
2019-03-26T18:42:12.644Z,102591.91
2019-03-26T18:44:43.973Z,102602.61
2019-03-26T18:47:22.804Z,102597.12
2019-03-26T18:49:58.303Z,102597.45
2019-03-26T18:52:35.390Z,102598.56
2019-03-26T18:55:15.007Z,102594.38
2019-03-26T18:57:49.889Z,102596.84
2019-03-26T19:00:39.327Z,102596.00
2019-03-26T19:03:13.376Z,102596.30
2019-03-26T19:05:45.039Z,102593.63
2019-03-26T19:08:18.149Z,102594.02
2019-03-26T19:10:52.418Z,102600.23
2019-03-26T19:13:25.591Z,102591.18
2019-03-26T19:16:01.405Z,102597.24
2019-03-26T19:18:32.632Z,102606.01
2019-03-26T19:21:03.414Z,102596.64
2019-03-26T19:23:34.307Z,102602.02
2019-03-26T19:26:06.294Z,102595.35
2019-03-26T19:28:39.332Z,102603.80
2019-03-26T19:31:19.052Z,102606.45
2019-03-26T19:33:56.770Z,102605.97
2019-03-26T19:36:33.249Z,102601.89
2019-03-26T19:39:18.834Z,102601.02
2019-03-26T19:41:56.640Z,102592.34
2019-03-26T19:44:49.118Z,102605.97
2019-03-26T19:47:21.484Z,102605.95
2019-03-26T19:49:53.082Z,102613.28
2019-03-26T19:52:25.445Z,102612.68
2019-03-26T19:55:00.826Z,102612.83
2019-03-26T19:57:31.918Z,102606.31
2019-03-26T20:00:04.219Z,102618.22
2019-03-26T20:02:40.326Z,102627.90
2019-03-26T20:05:18.937Z,102626.02
2019-03-26T20:07:52.823Z,102626.40
2019-03-26T20:10:31.058Z,102634.02
2019-03-26T20:13:24.343Z,102637.57
2019-03-26T20:15:57.415Z,102643.28
2019-03-26T20:18:46.937Z,102641.56
2019-03-26T20:21:28.762Z,102645.56
2019-03-26T20:24:03.509Z,102652.33
2019-03-26T20:26:41.029Z,102656.77
2019-03-26T20:29:24.689Z,102657.22
2019-03-26T20:31:58.858Z,102655.44
2019-03-26T20:34:31.752Z,102654.82
2019-03-26T20:37:04.624Z,102652.03
2019-03-26T20:39:36.515Z,102650.39
2019-03-26T20:42:08.207Z,102654.99
2019-03-26T20:44:39.111Z,102660.56
2019-03-26T20:47:13.219Z,102655.23
2019-03-26T20:49:44.986Z,102657.48
2019-03-26T20:52:20.006Z,102660.96
2019-03-26T20:54:56.053Z,102650.66
2019-03-26T20:57:29.221Z,102652.38
2019-03-26T21:00:09.198Z,102649.77
2019-03-26T21:02:43.213Z,102659.48
2019-03-26T21:05:14.285Z,102649.37
2019-03-26T21:07:47.931Z,102656.83
2019-03-26T21:10:21.903Z,102658.64
2019-03-26T21:12:53.717Z,102654.60
2019-03-26T21:15:26.256Z,102661.22
2019-03-26T21:17:57.005Z,102655.09
2019-03-26T21:20:28.695Z,102656.91
2019-03-26T21:23:01.468Z,102658.29
2019-03-26T21:25:34.660Z,102652.43
2019-03-26T21:28:08.381Z,102649.81
2019-03-26T21:30:48.604Z,102655.94
2019-03-26T21:33:22.985Z,102650.87
2019-03-26T21:35:56.929Z,102656.16
2019-03-26T21:38:29.283Z,102651.27
2019-03-26T21:41:00.837Z,102652.29
2019-03-26T21:43:33.689Z,102653.25
2019-03-26T21:46:06.607Z,102658.17
2019-03-26T21:48:38.801Z,102663.33
2019-03-26T21:51:10.665Z,102671.23
2019-03-26T21:53:44.215Z,102670.25
2019-03-26T21:56:16.294Z,102671.08
2019-03-26T21:58:50.483Z,102674.25
2019-03-26T22:01:22.896Z,102671.45
2019-03-26T22:03:55.463Z,102666.57
2019-03-26T22:06:27.010Z,102662.95
2019-03-26T22:08:59.940Z,102667.45
2019-03-26T22:11:31.507Z,102669.67
2019-03-26T22:14:02.341Z,102667.46
2019-03-26T22:16:35.688Z,102671.05
2019-03-26T22:19:09.072Z,102671.45
2019-03-26T22:21:41.138Z,102669.27
2019-03-26T22:24:12.610Z,102665.34
2019-03-26T22:26:43.735Z,102672.95
2019-03-26T22:29:15.549Z,102678.73
2019-03-26T22:31:47.866Z,102684.59
2019-03-26T22:34:18.704Z,102681.95
2019-03-26T22:36:53.392Z,102672.06
2019-03-26T22:39:24.622Z,102668.95
2019-03-26T22:41:58.651Z,102669.34
2019-03-26T22:44:32.661Z,102670.22
2019-03-26T22:47:08.131Z,102673.74
2019-03-26T22:49:39.502Z,102678.55
2019-03-26T22:52:12.045Z,102675.41
2019-03-26T22:54:43.641Z,102672.27
2019-03-26T22:57:15.043Z,102671.90
2019-03-26T22:59:48.057Z,102664.23
2019-03-26T23:02:22.099Z,102671.30
2019-03-26T23:04:53.640Z,102669.09
2019-03-26T23:07:25.836Z,102676.19
2019-03-26T23:10:00.405Z,102676.19
2019-03-26T23:12:32.203Z,102664.72
2019-03-26T23:15:08.344Z,102667.30
2019-03-26T23:17:45.959Z,102667.79
2019-03-26T23:20:17.946Z,102663.83
2019-03-26T23:22:49.625Z,102664.42
2019-03-26T23:25:21.795Z,102665.78
2019-03-26T23:27:53.803Z,102662.58
2019-03-26T23:30:26.200Z,102665.69
2019-03-26T23:33:05.057Z,102662.54
2019-03-26T23:35:38.686Z,102660.36
2019-03-26T23:38:10.550Z,102657.77
2019-03-26T23:40:43.840Z,102660.08
2019-03-26T23:43:19.177Z,102657.53
2019-03-26T23:45:52.527Z,102657.16
2019-03-26T23:51:01.801Z,102652.73
2019-03-26T23:53:33.347Z,102658.03
2019-03-26T23:56:09.634Z,102662.00
2019-03-26T23:58:43.255Z,102660.64
